Time;durP1;ratioP1;P1;durP2;ratioP2;P2;SDS_P1;SDS_P2;PMS_P1;PMS_P2;Temp;Humidity;BMP_temperature;BMP_pressure;BME280_temperature;BME280_humidity;BME280_pressure;Samples;Min_cycle;Max_cycle;Signal;HPM_P1;HPM_P2
2021/12/08 00:02:16;;;;;;;19.50;10.17;;;-4.30;99.90;;;;;;5071642;28;20294;-61
2021/12/08 00:04:44;;;;;;;20.80;11.10;;;-4.30;99.90;;;;;;5070124;28;20233;-64
2021/12/08 00:07:11;;;;;;;19.90;10.93;;;-4.30;99.90;;;;;;5072520;28;20676;-62
2021/12/08 00:09:49;;;;;;;22.67;12.87;;;-4.30;99.90;;;;;;5072054;28;20631;-63
2021/12/08 00:15:02;;;;;;;15.30;8.43;;;-4.30;99.90;;;;;;5074720;28;20227;-61
2021/12/08 00:17:29;;;;;;;23.93;12.30;;;-4.30;99.90;;;;;;5076086;28;20236;-63
2021/12/08 00:20:01;;;;;;;18.33;9.27;;;-4.30;99.90;;;;;;5073255;28;20242;-62
2021/12/08 00:22:28;;;;;;;16.23;7.50;;;-4.30;99.90;;;;;;5076465;28;20216;-63
2021/12/08 00:24:55;;;;;;;20.77;10.77;;;-4.40;99.90;;;;;;5075603;28;20220;-62
2021/12/08 00:27:22;;;;;;;18.60;11.30;;;-4.40;99.90;;;;;;5076008;28;20229;-63
2021/12/08 00:29:49;;;;;;;20.13;10.07;;;-4.50;99.90;;;;;;5076587;28;20211;-62
2021/12/08 00:32:19;;;;;;;15.73;9.17;;;-4.50;99.90;;;;;;5068552;28;20323;-62
2021/12/08 00:34:47;;;;;;;21.03;11.80;;;-4.60;99.90;;;;;;5075717;28;20250;-62
2021/12/08 00:37:15;;;;;;;21.33;11.13;;;-4.50;99.90;;;;;;5076490;28;20289;-63
2021/12/08 00:39:42;;;;;;;24.63;11.97;;;-4.50;99.90;;;;;;5075795;28;20252;-62
2021/12/08 00:42:09;;;;;;;21.73;11.60;;;-4.50;99.90;;;;;;5072690;28;20228;-62
2021/12/08 00:44:36;;;;;;;20.40;11.53;;;-4.50;99.90;;;;;;5074384;28;20300;-62
2021/12/08 00:47:04;;;;;;;21.33;11.30;;;-4.40;99.90;;;;;;5073938;28;20281;-63
2021/12/08 00:49:32;;;;;;;18.53;8.90;;;-4.40;99.90;;;;;;5079179;28;20247;-61
2021/12/08 00:51:59;;;;;;;22.37;11.40;;;-4.40;99.90;;;;;;5096557;28;20262;-62
2021/12/08 00:54:27;;;;;;;20.10;10.63;;;-4.50;99.90;;;;;;5083521;28;20801;-63
2021/12/08 00:56:54;;;;;;;22.23;11.20;;;-4.40;99.90;;;;;;5095352;28;20228;-62
2021/12/08 00:59:21;;;;;;;22.13;10.67;;;-4.50;99.90;;;;;;5082623;28;20277;-63
2021/12/08 01:01:49;;;;;;;19.77;10.90;;;-4.50;99.90;;;;;;5063924;28;20269;-61
2021/12/08 01:04:16;;;;;;;19.53;11.43;;;-4.50;99.90;;;;;;5075359;28;20236;-63
2021/12/08 01:06:44;;;;;;;24.07;12.90;;;-4.50;99.90;;;;;;5092405;28;20232;-62
2021/12/08 01:09:11;;;;;;;18.57;9.13;;;-4.50;99.90;;;;;;5092499;28;20299;-62
2021/12/08 01:11:40;;;;;;;23.93;11.90;;;-4.50;99.90;;;;;;5091139;28;20285;-61
2021/12/08 01:14:07;;;;;;;19.93;11.43;;;-4.60;99.90;;;;;;5076964;28;20739;-63
2021/12/08 01:16:34;;;;;;;22.13;12.13;;;-4.60;99.90;;;;;;5075923;28;20256;-63
2021/12/08 01:19:01;;;;;;;22.50;12.30;;;-4.50;99.90;;;;;;5075682;28;20618;-62
2021/12/08 01:21:28;;;;;;;21.37;12.43;;;-4.60;99.90;;;;;;5091097;28;20292;-63
2021/12/08 01:23:55;;;;;;;22.40;12.57;;;-4.50;99.90;;;;;;5096316;28;20299;-60
2021/12/08 01:26:22;;;;;;;22.97;12.97;;;-4.60;99.90;;;;;;5088493;28;20264;-61
2021/12/08 01:28:52;;;;;;;21.40;11.87;;;-4.60;99.90;;;;;;5093001;28;20657;-63
2021/12/08 01:31:19;;;;;;;22.13;12.70;;;-4.60;99.90;;;;;;5094588;28;20240;-63
2021/12/08 01:33:46;;;;;;;25.30;13.30;;;-4.70;99.90;;;;;;5079494;28;20275;-63
2021/12/08 01:36:13;;;;;;;25.60;12.87;;;-4.60;99.90;;;;;;5074416;28;20221;-62
2021/12/08 01:38:40;;;;;;;26.13;13.03;;;-4.60;99.90;;;;;;5086770;28;20615;-63
2021/12/08 01:41:07;;;;;;;26.87;13.77;;;-4.60;99.90;;;;;;5086092;28;20232;-63
2021/12/08 01:43:42;;;;;;;23.53;12.27;;;-4.50;99.90;;;;;;5097753;28;20697;-64
2021/12/08 01:46:12;;;;;;;27.97;14.90;;;-4.50;99.90;;;;;;5070467;28;20285;-63
2021/12/08 01:48:42;;;;;;;25.13;13.47;;;-4.50;99.90;;;;;;5081173;28;20208;-61
2021/12/08 01:51:12;;;;;;;23.23;11.33;;;-4.50;99.90;;;;;;5079382;28;20292;-62
2021/12/08 01:53:40;;;;;;;26.73;14.40;;;-4.50;99.90;;;;;;5097471;28;20680;-63
2021/12/08 01:56:08;;;;;;;24.30;13.90;;;-4.50;99.90;;;;;;5077397;28;20290;-62
2021/12/08 01:58:35;;;;;;;25.10;14.10;;;-4.50;99.90;;;;;;5083470;28;20244;-62
2021/12/08 02:01:05;;;;;;;31.03;15.30;;;-4.50;99.90;;;;;;5075735;28;20201;-59
2021/12/08 02:03:35;;;;;;;26.63;14.47;;;-4.50;99.90;;;;;;5073505;28;20201;-62
2021/12/08 02:06:03;;;;;;;29.03;15.40;;;-4.60;99.90;;;;;;5077027;28;20270;-64
2021/12/08 02:08:30;;;;;;;17.60;9.80;;;-4.60;99.90;;;;;;5092910;28;20656;-63
2021/12/08 02:10:58;;;;;;;23.07;13.50;;;-4.60;99.90;;;;;;5096983;28;20295;-62
2021/12/08 02:13:27;;;;;;;26.17;14.37;;;-4.60;99.90;;;;;;5082227;28;20547;-62
2021/12/08 02:15:54;;;;;;;23.80;13.00;;;-4.60;99.90;;;;;;5087990;28;20233;-63
2021/12/08 02:18:21;;;;;;;28.90;13.97;;;-4.60;99.90;;;;;;5075497;28;20297;-62
2021/12/08 02:20:50;;;;;;;23.97;12.37;;;-4.60;99.90;;;;;;5088780;28;20634;-63
2021/12/08 02:23:19;;;;;;;27.63;13.70;;;-4.60;99.90;;;;;;5080306;28;20311;-63
2021/12/08 02:25:49;;;;;;;25.80;14.07;;;-4.60;99.90;;;;;;5087779;28;20300;-63
2021/12/08 02:28:16;;;;;;;27.83;14.30;;;-4.60;99.90;;;;;;5085559;28;20205;-62
2021/12/08 02:30:47;;;;;;;27.20;14.07;;;-4.70;99.90;;;;;;5082753;28;20236;-61
2021/12/08 02:47:10;;;;;;;30.43;14.30;;;-4.70;99.90;;;;;;5088928;28;20245;-63
2021/12/08 02:49:38;;;;;;;22.20;11.90;;;-4.70;99.90;;;;;;5077776;28;20236;-63
2021/12/08 02:52:07;;;;;;;17.67;10.00;;;-4.70;99.90;;;;;;5086373;28;20204;-63
2021/12/08 02:54:37;;;;;;;25.43;11.87;;;-4.70;99.90;;;;;;5089826;28;20726;-63
2021/12/08 02:57:05;;;;;;;19.80;12.37;;;-4.70;99.90;;;;;;5084057;28;20669;-62
2021/12/08 02:59:32;;;;;;;22.30;11.37;;;-4.70;99.90;;;;;;5081117;28;20227;-63
2021/12/08 03:02:00;;;;;;;21.73;11.53;;;-4.70;99.90;;;;;;5096420;28;20737;-63
2021/12/08 03:04:27;;;;;;;20.43;11.27;;;-4.70;99.90;;;;;;5083053;28;20291;-63
2021/12/08 03:06:54;;;;;;;17.83;10.37;;;-4.70;99.90;;;;;;5078520;28;20228;-63
2021/12/08 03:09:21;;;;;;;20.43;11.50;;;-4.60;99.90;;;;;;5093607;28;20232;-62
2021/12/08 03:11:50;;;;;;;19.80;12.10;;;-4.60;99.90;;;;;;5089949;28;20258;-63
2021/12/08 03:14:19;;;;;;;21.13;10.60;;;-4.70;99.90;;;;;;5082837;28;20245;-62
2021/12/08 03:16:49;;;;;;;22.63;11.93;;;-4.70;99.90;;;;;;5082652;28;20271;-63
2021/12/08 03:19:16;;;;;;;21.60;11.33;;;-4.70;99.90;;;;;;5079387;28;20263;-60
2021/12/08 03:21:43;;;;;;;20.00;10.60;;;-4.60;99.90;;;;;;5076058;28;20205;-63
2021/12/08 03:24:23;;;;;;;19.30;11.00;;;-4.60;99.90;;;;;;5084612;28;20228;-63
2021/12/08 03:27:02;;;;;;;17.60;9.27;;;-4.60;99.90;;;;;;5087750;28;20224;-63
2021/12/08 03:29:35;;;;;;;16.40;9.87;;;-4.70;99.90;;;;;;5076019;28;20652;-62
2021/12/08 03:32:07;;;;;;;20.10;10.47;;;-4.70;99.90;;;;;;5088676;28;20257;-63
2021/12/08 03:34:38;;;;;;;18.50;11.40;;;-4.80;99.90;;;;;;5074616;28;20193;-62
2021/12/08 03:37:06;;;;;;;20.17;11.77;;;-4.80;99.90;;;;;;5079149;28;20308;-62
2021/12/08 03:39:34;;;;;;;19.70;11.80;;;-4.80;99.90;;;;;;5083809;28;20248;-63
2021/12/08 03:42:04;;;;;;;20.27;11.57;;;-4.80;99.90;;;;;;5095586;28;20277;-63
2021/12/08 03:44:31;;;;;;;20.37;12.07;;;-4.70;99.90;;;;;;5094879;28;20204;-63
2021/12/08 03:47:01;;;;;;;19.00;11.27;;;-4.60;99.90;;;;;;5082226;28;20194;-64
2021/12/08 03:49:29;;;;;;;19.33;10.60;;;-4.50;99.90;;;;;;5068097;28;20629;-61
2021/12/08 03:52:00;;;;;;;19.40;9.70;;;-4.60;99.90;;;;;;5084803;28;20231;-62
2021/12/08 03:54:27;;;;;;;18.13;11.87;;;-4.50;99.90;;;;;;5079293;28;20329;-63
2021/12/08 03:56:54;;;;;;;18.07;10.83;;;-4.50;99.90;;;;;;5082355;28;20319;-62
2021/12/08 03:59:22;;;;;;;15.90;9.57;;;-4.50;99.90;;;;;;5092153;28;20315;-63
2021/12/08 04:01:50;;;;;;;19.77;10.70;;;-4.50;99.90;;;;;;5068482;28;20286;-62
2021/12/08 04:04:17;;;;;;;16.70;10.03;;;-4.60;99.90;;;;;;5082009;28;20304;-64
2021/12/08 04:06:48;;;;;;;16.37;10.07;;;-4.60;99.90;;;;;;5078601;28;20222;-62
2021/12/08 04:09:26;;;;;;;18.53;9.17;;;-4.60;99.90;;;;;;5088084;28;20232;-62
2021/12/08 04:11:54;;;;;;;14.73;7.33;;;-4.60;99.90;;;;;;5090244;28;20201;-62
2021/12/08 04:14:25;;;;;;;16.50;9.80;;;-4.70;99.90;;;;;;5086690;28;20212;-62
2021/12/08 04:16:57;;;;;;;16.90;9.20;;;-4.70;99.90;;;;;;5084950;28;20630;-62
2021/12/08 04:19:26;;;;;;;15.33;8.33;;;-4.80;99.90;;;;;;5085933;28;20695;-61
2021/12/08 04:21:56;;;;;;;19.73;9.63;;;-4.70;99.90;;;;;;5076545;28;20290;-63
2021/12/08 04:24:23;;;;;;;18.57;10.50;;;-4.90;99.90;;;;;;5084595;28;20242;-62
2021/12/08 04:26:55;;;;;;;18.50;9.40;;;-4.90;99.90;;;;;;5079808;28;20244;-63
2021/12/08 04:29:28;;;;;;;18.53;10.17;;;-4.80;99.90;;;;;;5077189;28;20201;-64
2021/12/08 04:31:56;;;;;;;15.10;9.10;;;-4.90;99.90;;;;;;5091296;28;20293;-62
2021/12/08 04:34:29;;;;;;;17.80;9.17;;;-4.90;99.90;;;;;;5085694;28;20244;-62
2021/12/08 04:37:02;;;;;;;16.43;8.23;;;-4.90;99.90;;;;;;5078082;28;20932;-62
2021/12/08 04:39:41;;;;;;;12.93;7.47;;;-4.90;99.90;;;;;;5076096;28;20262;-63
2021/12/08 04:42:14;;;;;;;15.03;8.93;;;-4.90;99.90;;;;;;5090542;28;20205;-63
2021/12/08 04:44:48;;;;;;;17.40;9.83;;;-5.00;99.90;;;;;;5094087;28;20201;-63
2021/12/08 04:47:29;;;;;;;21.87;11.20;;;-5.00;99.90;;;;;;5079675;28;20226;-63
2021/12/08 04:50:25;;;;;;;17.70;9.43;;;-5.00;99.90;;;;;;5067082;28;20518;-64
2021/12/08 04:53:01;;;;;;;16.53;9.97;;;-5.00;99.90;;;;;;5097988;28;20205;-63
2021/12/08 05:01:18;;;;;;;18.20;10.17;;;-5.00;99.90;;;;;;5078151;28;20274;-63
2021/12/08 05:04:07;;;;;;;23.43;12.20;;;-5.10;99.90;;;;;;5074803;28;20283;-62
2021/12/08 05:06:46;;;;;;;18.63;10.00;;;-5.10;99.90;;;;;;5097917;28;20196;-62
2021/12/08 05:09:18;;;;;;;20.20;10.10;;;-5.10;99.90;;;;;;5071087;28;20214;-62
2021/12/08 05:11:48;;;;;;;21.77;10.97;;;-5.10;99.90;;;;;;5091134;28;20228;-62
2021/12/08 05:14:19;;;;;;;18.60;9.60;;;-5.10;99.90;;;;;;5088837;28;20212;-60
2021/12/08 05:16:50;;;;;;;18.83;11.27;;;-5.10;99.90;;;;;;5083676;28;20244;-64
2021/12/08 05:19:20;;;;;;;19.70;10.80;;;-5.20;99.90;;;;;;5086538;28;20673;-61
2021/12/08 05:21:50;;;;;;;19.90;9.77;;;-5.20;99.90;;;;;;5096721;28;20208;-62
2021/12/08 05:24:20;;;;;;;20.27;11.70;;;-5.20;99.90;;;;;;5088048;28;20224;-63
2021/12/08 05:26:53;;;;;;;20.57;12.20;;;-5.30;99.90;;;;;;5078496;28;20627;-62
2021/12/08 05:29:24;;;;;;;20.87;9.93;;;-5.30;99.90;;;;;;5076582;28;20201;-63
2021/12/08 05:31:55;;;;;;;19.43;10.03;;;-5.30;99.90;;;;;;5092901;28;20236;-62
2021/12/08 05:34:22;;;;;;;16.83;10.80;;;-5.30;99.90;;;;;;5090631;28;20198;-63
2021/12/08 05:36:50;;;;;;;16.70;8.17;;;-5.20;99.90;;;;;;5085642;28;20363;-61
2021/12/08 05:39:22;;;;;;;19.73;11.43;;;-5.20;99.90;;;;;;5077181;28;20232;-63
2021/12/08 05:41:52;;;;;;;20.17;10.77;;;-5.20;99.90;;;;;;5078368;28;20719;-63
2021/12/08 05:44:20;;;;;;;16.37;10.03;;;-5.20;99.90;;;;;;5069719;28;20758;-63
2021/12/08 05:46:51;;;;;;;15.97;10.00;;;-5.20;99.90;;;;;;5083973;28;20236;-63
2021/12/08 05:49:20;;;;;;;18.83;11.60;;;-5.20;99.90;;;;;;5077982;28;20233;-62
2021/12/08 05:51:48;;;;;;;16.97;9.57;;;-5.20;99.90;;;;;;5088164;28;20213;-63
2021/12/08 05:54:18;;;;;;;15.90;9.27;;;-5.10;99.90;;;;;;5090495;28;20267;-62
2021/12/08 05:56:46;;;;;;;20.40;10.70;;;-5.20;99.90;;;;;;5075748;28;20833;-60
2021/12/08 05:59:14;;;;;;;18.70;10.40;;;-5.20;99.90;;;;;;5086160;28;20323;-63
2021/12/08 06:01:44;;;;;;;14.63;9.83;;;-5.20;99.90;;;;;;5082351;28;20207;-64
2021/12/08 06:04:12;;;;;;;16.90;10.43;;;-5.30;99.90;;;;;;5095965;28;20730;-62
2021/12/08 06:06:42;;;;;;;15.73;9.60;;;-5.30;99.90;;;;;;5081540;28;20701;-65
2021/12/08 06:09:12;;;;;;;15.13;8.63;;;-5.30;99.90;;;;;;5078769;28;20245;-62
2021/12/08 06:11:39;;;;;;;14.73;7.90;;;-5.30;99.90;;;;;;5090109;28;20227;-62
2021/12/08 06:14:08;;;;;;;14.73;9.20;;;-5.40;99.90;;;;;;5075355;28;20243;-61
2021/12/08 06:16:38;;;;;;;15.57;8.63;;;-5.40;99.90;;;;;;5077873;28;20710;-62
2021/12/08 06:19:07;;;;;;;15.00;8.70;;;-5.50;99.90;;;;;;5083888;28;20287;-61
2021/12/08 06:21:34;;;;;;;14.83;9.57;;;-5.50;99.90;;;;;;5096024;28;20276;-63
2021/12/08 06:24:06;;;;;;;16.33;8.90;;;-5.60;99.90;;;;;;5096620;28;20254;-63
2021/12/08 06:26:33;;;;;;;14.80;8.50;;;-5.60;99.90;;;;;;5095538;28;20197;-62
2021/12/08 06:29:01;;;;;;;15.30;8.57;;;-5.60;99.90;;;;;;5076143;28;20612;-64
2021/12/08 06:31:30;;;;;;;13.40;8.17;;;-5.50;99.90;;;;;;5075712;28;20332;-63
2021/12/08 06:33:58;;;;;;;14.50;8.57;;;-5.50;99.90;;;;;;5076429;28;20488;-62
2021/12/08 06:36:28;;;;;;;16.63;8.47;;;-5.50;99.90;;;;;;5069284;28;20271;-63
2021/12/08 06:38:56;;;;;;;15.07;8.40;;;-5.40;99.90;;;;;;5089835;28;20288;-62
2021/12/08 06:41:29;;;;;;;14.90;9.00;;;-5.50;99.90;;;;;;5075763;28;20259;-63
2021/12/08 06:44:00;;;;;;;13.60;7.67;;;-5.40;99.90;;;;;;5092531;28;20204;-63
2021/12/08 06:46:27;;;;;;;11.77;6.70;;;-5.40;99.90;;;;;;5082461;28;20284;-64
2021/12/08 06:48:57;;;;;;;15.27;8.67;;;-5.50;99.90;;;;;;5078306;28;20375;-64
2021/12/08 06:51:27;;;;;;;11.77;6.97;;;-5.60;99.90;;;;;;5060135;28;20205;-62
2021/12/08 06:53:58;;;;;;;16.03;7.70;;;-5.60;99.90;;;;;;5076734;28;20289;-62
2021/12/08 06:56:31;;;;;;;7.93;4.93;;;-5.70;99.90;;;;;;5075972;28;20681;-64
2021/12/08 06:59:01;;;;;;;12.03;6.57;;;-5.70;99.90;;;;;;5085186;28;20272;-63
2021/12/08 07:01:42;;;;;;;13.37;7.73;;;-5.70;99.90;;;;;;5089925;28;20232;-64
2021/12/08 07:04:26;;;;;;;15.63;7.17;;;-5.70;99.90;;;;;;5082714;28;20197;-63
2021/12/08 07:06:59;;;;;;;12.70;7.23;;;-5.70;99.90;;;;;;5071905;28;20196;-64
2021/12/08 07:09:29;;;;;;;12.97;8.33;;;-5.60;99.90;;;;;;5072490;28;20272;-63
2021/12/08 07:12:01;;;;;;;14.60;7.97;;;-5.60;99.90;;;;;;5071087;28;20237;-66
2021/12/08 07:14:31;;;;;;;16.50;7.73;;;-5.60;99.90;;;;;;5070753;28;20197;-64
2021/12/08 07:17:03;;;;;;;10.83;7.50;;;-5.60;99.90;;;;;;5071352;28;20218;-65
2021/12/08 07:19:42;;;;;;;12.10;7.80;;;-5.70;99.90;;;;;;5071832;28;20576;-65
2021/12/08 07:22:12;;;;;;;12.93;8.23;;;-5.70;99.90;;;;;;5063518;28;20589;-66
2021/12/08 07:24:43;;;;;;;12.97;6.70;;;-5.70;99.90;;;;;;5067889;28;20249;-66
2021/12/08 07:27:15;;;;;;;13.60;8.37;;;-5.60;99.90;;;;;;5071598;28;20250;-65
2021/12/08 07:29:45;;;;;;;14.70;8.13;;;-5.60;99.90;;;;;;5066197;28;20301;-65
2021/12/08 07:32:15;;;;;;;13.03;7.80;;;-5.60;99.90;;;;;;5070095;28;20229;-65
2021/12/08 07:34:43;;;;;;;10.93;6.40;;;-5.60;99.90;;;;;;5072156;28;20236;-65
2021/12/08 07:37:14;;;;;;;17.23;7.47;;;-5.60;99.90;;;;;;5071875;28;20681;-66
2021/12/08 07:39:45;;;;;;;11.00;6.70;;;-5.60;99.90;;;;;;5072076;28;20244;-67
2021/12/08 07:42:19;;;;;;;11.70;6.50;;;-5.60;99.90;;;;;;5070427;28;20239;-67
2021/12/08 07:44:50;;;;;;;16.40;9.00;;;-5.60;99.90;;;;;;5071694;28;20198;-65
2021/12/08 07:47:20;;;;;;;12.90;6.60;;;-5.60;99.90;;;;;;5073132;28;20708;-66
2021/12/08 07:49:51;;;;;;;14.13;8.17;;;-5.50;99.90;;;;;;5075517;28;20739;-66
2021/12/08 07:52:23;;;;;;;10.47;6.33;;;-5.50;99.90;;;;;;5083841;28;20220;-66
2021/12/08 07:54:51;;;;;;;13.60;6.30;;;-5.50;99.90;;;;;;5088985;28;20235;-66
2021/12/08 07:57:23;;;;;;;11.73;7.37;;;-5.50;99.90;;;;;;5083549;28;20289;-66
2021/12/08 07:59:53;;;;;;;21.43;11.13;;;-5.50;99.90;;;;;;5075124;28;20201;-66
2021/12/08 08:02:25;;;;;;;14.80;8.03;;;-5.50;99.90;;;;;;5071448;28;20830;-65
2021/12/08 08:04:58;;;;;;;14.40;7.87;;;-5.40;99.90;;;;;;5076846;28;20220;-66
2021/12/08 08:07:26;;;;;;;11.70;6.00;;;-5.40;99.90;;;;;;5078098;28;20252;-67
2021/12/08 08:10:00;;;;;;;13.50;8.17;;;-5.40;99.90;;;;;;5087152;28;20208;-67
2021/12/08 08:12:31;;;;;;;15.50;9.00;;;-5.40;99.90;;;;;;5069818;28;20232;-68
2021/12/08 08:15:04;;;;;;;15.80;8.70;;;-5.40;99.90;;;;;;5071120;28;20201;-69
2021/12/08 08:17:37;;;;;;;13.27;7.10;;;-5.40;99.90;;;;;;5070760;28;20306;-68
2021/12/08 08:20:09;;;;;;;16.00;8.50;;;-5.40;99.90;;;;;;5085051;28;20220;-68
2021/12/08 08:22:37;;;;;;;15.90;8.13;;;-5.30;99.90;;;;;;5072371;28;20254;-69
2021/12/08 08:25:09;;;;;;;15.63;8.90;;;-5.30;99.90;;;;;;5082416;28;20588;-69
2021/12/08 08:27:38;;;;;;;16.57;7.90;;;-5.20;99.90;;;;;;5074671;28;20277;-70
2021/12/08 08:30:09;;;;;;;14.17;8.63;;;-5.20;99.90;;;;;;5079337;28;20301;-69
2021/12/08 08:32:39;;;;;;;16.67;8.87;;;-5.10;99.90;;;;;;5075031;28;20240;-69
2021/12/08 08:35:12;;;;;;;18.40;7.80;;;-5.00;99.90;;;;;;5078328;28;20212;-68
2021/12/08 08:37:40;;;;;;;16.03;8.33;;;-5.00;99.90;;;;;;5084905;28;20224;-67
2021/12/08 08:40:12;;;;;;;15.80;8.13;;;-4.90;99.90;;;;;;5087489;28;20239;-68
2021/12/08 08:42:43;;;;;;;15.60;8.90;;;-4.90;99.90;;;;;;5069128;28;20284;-66
2021/12/08 08:45:14;;;;;;;18.80;9.67;;;-4.90;99.90;;;;;;5096539;28;20213;-67
2021/12/08 08:47:44;;;;;;;18.27;9.03;;;-4.80;99.90;;;;;;5071917;28;20233;-67
2021/12/08 08:50:15;;;;;;;18.70;9.67;;;-4.80;99.90;;;;;;5073481;28;20201;-65
2021/12/08 08:52:48;;;;;;;14.93;8.53;;;-4.70;99.90;;;;;;5088720;28;20710;-67
2021/12/08 08:55:18;;;;;;;17.50;9.57;;;-4.60;99.90;;;;;;5095131;28;20201;-67
2021/12/08 08:57:48;;;;;;;19.50;9.47;;;-4.60;99.90;;;;;;5079574;28;20225;-65
2021/12/08 09:00:19;;;;;;;16.07;8.80;;;-4.60;99.90;;;;;;5066671;28;20309;-66
2021/12/08 09:02:48;;;;;;;13.13;6.70;;;-4.60;99.90;;;;;;5075136;28;20252;-66
2021/12/08 09:05:18;;;;;;;12.83;8.80;;;-4.50;99.90;;;;;;5075200;28;20267;-66
2021/12/08 09:07:51;;;;;;;13.37;8.23;;;-4.50;99.90;;;;;;5076199;28;20266;-67
2021/12/08 09:10:22;;;;;;;19.53;8.23;;;-4.50;99.90;;;;;;5076650;28;20205;-67
2021/12/08 09:12:55;;;;;;;9.20;5.93;;;-4.50;99.90;;;;;;5075120;28;20286;-66
2021/12/08 09:15:27;;;;;;;19.27;10.40;;;-4.40;99.90;;;;;;5071902;28;20293;-66
2021/12/08 09:17:59;;;;;;;16.83;9.53;;;-4.50;99.90;;;;;;5069806;28;20221;-67
2021/12/08 09:20:33;;;;;;;14.23;7.27;;;-4.40;99.90;;;;;;5075537;28;20256;-68
2021/12/08 09:23:04;;;;;;;18.00;9.33;;;-4.30;99.90;;;;;;5075983;28;20201;-65
2021/12/08 09:25:36;;;;;;;16.17;9.40;;;-4.30;99.90;;;;;;5075399;28;20292;-66
2021/12/08 09:28:11;;;;;;;20.02;11.40;;;-4.30;99.90;;;;;;5076399;28;21195;-67
2021/12/08 09:30:46;;;;;;;20.17;10.73;;;-4.30;99.90;;;;;;5076106;28;20254;-68
2021/12/08 09:33:16;;;;;;;12.13;5.77;;;-4.20;99.90;;;;;;5069138;28;20205;-67
2021/12/08 09:35:47;;;;;;;16.80;9.70;;;-4.10;99.90;;;;;;5074396;28;20552;-67
2021/12/08 09:38:19;;;;;;;18.33;9.40;;;-4.10;99.90;;;;;;5063267;28;20767;-68
2021/12/08 09:40:53;;;;;;;16.70;9.33;;;-4.10;99.90;;;;;;5071038;28;20547;-66
2021/12/08 09:43:26;;;;;;;17.90;10.20;;;-4.20;99.90;;;;;;5075787;28;20204;-69
2021/12/08 09:45:57;;;;;;;19.97;10.57;;;-4.20;99.90;;;;;;5072068;28;20350;-70
2021/12/08 09:48:29;;;;;;;16.70;9.83;;;-4.20;99.90;;;;;;5076477;28;20236;-67
2021/12/08 09:50:57;;;;;;;17.43;9.07;;;-4.30;99.90;;;;;;5077951;28;20718;-68
2021/12/08 09:53:25;;;;;;;15.07;9.07;;;-4.30;99.90;;;;;;5090187;28;20237;-68
2021/12/08 09:55:52;;;;;;;15.40;8.80;;;-4.30;99.90;;;;;;5069894;28;20210;-69
2021/12/08 09:58:21;;;;;;;16.70;9.07;;;-4.20;99.90;;;;;;5075406;28;20221;-68
2021/12/08 10:00:52;;;;;;;19.27;9.47;;;-4.10;99.90;;;;;;5074015;28;20613;-66
2021/12/08 10:03:19;;;;;;;16.87;9.83;;;-4.00;99.90;;;;;;5068115;28;20193;-66
2021/12/08 10:05:47;;;;;;;18.30;9.30;;;-3.90;99.90;;;;;;5071252;28;20808;-66
2021/12/08 10:08:14;;;;;;;10.43;5.73;;;-3.70;99.90;;;;;;5065294;28;20262;-66
2021/12/08 10:10:42;;;;;;;17.97;9.70;;;-3.70;99.90;;;;;;5071963;28;20201;-66
2021/12/08 10:13:10;;;;;;;20.70;9.57;;;-3.70;99.90;;;;;;5072601;28;20264;-66
2021/12/08 10:15:40;;;;;;;17.00;9.07;;;-3.80;99.90;;;;;;5073890;28;20236;-66
2021/12/08 10:18:08;;;;;;;17.50;10.13;;;-3.80;99.90;;;;;;5075602;28;20694;-67
2021/12/08 10:20:38;;;;;;;21.57;10.63;;;-3.70;99.90;;;;;;5071124;28;20228;-66
2021/12/08 10:23:23;;;;;;;21.27;11.23;;;-3.60;99.90;;;;;;5073673;28;20209;-66
2021/12/08 10:25:54;;;;;;;19.93;10.43;;;-3.50;99.90;;;;;;5075242;28;20224;-67
2021/12/08 10:28:26;;;;;;;24.27;12.13;;;-3.30;99.90;;;;;;5074883;28;20501;-67
2021/12/08 10:30:57;;;;;;;14.97;8.03;;;-3.20;99.90;;;;;;5074016;28;20233;-67
2021/12/08 10:33:52;;;;;;;23.60;11.77;;;-3.20;99.90;;;;;;5073154;28;20205;-67
2021/12/08 10:39:07;;;;;;;21.30;11.00;;;-3.30;99.90;;;;;;5071292;28;20221;-67
2021/12/08 10:41:59;;;;;;;19.67;11.37;;;-3.40;99.90;;;;;;5068208;28;20243;-66
2021/12/08 10:44:31;;;;;;;21.67;12.23;;;-3.40;99.90;;;;;;5067228;28;20201;-66
2021/12/08 10:47:00;;;;;;;18.20;10.47;;;-3.40;99.90;;;;;;5067781;28;20661;-67
2021/12/08 10:54:53;;;;;;;15.57;8.77;;;-3.50;99.90;;;;;;5084285;28;20203;-66
2021/12/08 10:57:24;;;;;;;19.53;11.07;;;-3.50;99.90;;;;;;5077620;28;20305;-66
2021/12/08 10:59:55;;;;;;;22.57;12.43;;;-3.60;99.90;;;;;;5074065;28;20216;-67
2021/12/08 11:02:48;;;;;;;21.37;10.67;;;-3.50;99.90;;;;;;5080608;28;20309;-67
2021/12/08 11:05:39;;;;;;;24.07;10.77;;;-3.60;99.90;;;;;;5068640;28;20276;-67
2021/12/08 11:08:10;;;;;;;25.57;14.07;;;-3.60;99.90;;;;;;5072725;28;20284;-66
2021/12/08 11:10:40;;;;;;;16.23;9.20;;;-3.60;99.90;;;;;;5072317;28;20273;-66
2021/12/08 11:13:09;;;;;;;19.60;11.57;;;-3.60;99.90;;;;;;5072845;28;20241;-67
2021/12/08 11:15:38;;;;;;;22.73;11.63;;;-3.60;99.90;;;;;;5070365;28;20401;-66
2021/12/08 11:18:16;;;;;;;23.20;13.37;;;-3.60;99.90;;;;;;5062052;28;20232;-66
2021/12/08 11:20:53;;;;;;;18.60;9.03;;;-3.60;99.90;;;;;;5071244;28;20224;-66
2021/12/08 11:23:39;;;;;;;23.57;11.47;;;-3.50;99.90;;;;;;5073047;28;20535;-67
2021/12/08 11:26:13;;;;;;;22.13;11.60;;;-3.60;99.90;;;;;;5074138;28;20654;-67
2021/12/08 11:28:40;;;;;;;24.93;13.10;;;-3.50;99.90;;;;;;5067574;28;20252;-66
2021/12/08 11:31:11;;;;;;;22.27;10.73;;;-3.50;99.90;;;;;;5060808;28;20229;-67
2021/12/08 11:33:44;;;;;;;28.20;12.60;;;-3.50;99.90;;;;;;5064117;28;20304;-66
2021/12/08 11:36:15;;;;;;;23.50;11.63;;;-3.50;99.90;;;;;;5065808;28;20267;-67
2021/12/08 11:38:43;;;;;;;21.47;11.60;;;-3.50;99.90;;;;;;5059863;28;20264;-67
2021/12/08 11:41:24;;;;;;;19.40;10.80;;;-3.30;99.90;;;;;;5071786;28;20296;-67
2021/12/08 11:43:55;;;;;;;20.20;10.53;;;-3.30;99.90;;;;;;5071025;28;20197;-67
2021/12/08 11:46:23;;;;;;;19.83;9.37;;;-3.20;99.90;;;;;;5071908;28;20276;-67
2021/12/08 11:49:07;;;;;;;21.87;10.60;;;-3.20;99.90;;;;;;5068443;28;20242;-67
2021/12/08 11:51:50;;;;;;;16.77;9.47;;;-3.10;99.90;;;;;;5069900;28;20209;-66
2021/12/08 11:54:25;;;;;;;22.60;10.93;;;-3.10;99.90;;;;;;5071241;28;20209;-66
2021/12/08 11:56:53;;;;;;;21.27;10.27;;;-3.10;99.90;;;;;;5069517;28;20270;-67
2021/12/08 11:59:20;;;;;;;24.00;12.70;;;-3.10;99.90;;;;;;5067263;28;20589;-65
2021/12/08 12:01:47;;;;;;;22.03;11.23;;;-3.00;99.90;;;;;;5069911;28;20641;-66
2021/12/08 12:04:16;;;;;;;20.73;11.07;;;-3.00;99.90;;;;;;5063202;28;20290;-68
2021/12/08 12:06:43;;;;;;;18.03;9.93;;;-3.00;99.90;;;;;;5062067;28;20245;-66
2021/12/08 12:09:10;;;;;;;19.83;11.00;;;-2.90;99.90;;;;;;5055386;28;20320;-67
2021/12/08 12:11:41;;;;;;;20.03;11.33;;;-3.00;99.90;;;;;;5060474;28;20205;-66
2021/12/08 12:14:08;;;;;;;20.37;10.83;;;-3.00;99.90;;;;;;5061089;28;20205;-67
2021/12/08 12:16:35;;;;;;;18.40;10.60;;;-3.00;99.90;;;;;;5065776;28;20244;-66
2021/12/08 12:19:06;;;;;;;21.60;11.77;;;-3.00;99.90;;;;;;5063767;28;20285;-67
2021/12/08 12:21:47;;;;;;;21.67;10.80;;;-3.00;99.90;;;;;;5067176;28;20344;-67
2021/12/08 12:24:37;;;;;;;19.93;11.27;;;-3.00;99.90;;;;;;5069399;28;20197;-67
2021/12/08 12:27:27;;;;;;;19.43;10.40;;;-3.00;99.90;;;;;;5064063;28;20205;-69
2021/12/08 12:30:16;;;;;;;22.17;11.13;;;-2.90;99.90;;;;;;5066598;28;20673;-67
2021/12/08 12:32:46;;;;;;;17.93;11.17;;;-3.00;99.90;;;;;;5071209;28;20268;-66
2021/12/08 12:35:18;;;;;;;20.97;12.53;;;-3.00;99.90;;;;;;5071789;28;20296;-66
2021/12/08 12:37:48;;;;;;;19.40;10.23;;;-2.90;99.90;;;;;;5071220;28;20701;-67
2021/12/08 12:40:17;;;;;;;20.13;10.87;;;-2.90;99.90;;;;;;5066220;28;20212;-69
2021/12/08 12:42:50;;;;;;;21.57;12.07;;;-2.80;99.90;;;;;;5064382;28;20724;-67
2021/12/08 12:45:17;;;;;;;18.27;11.03;;;-2.80;99.90;;;;;;5070329;28;20233;-67
2021/12/08 12:48:05;;;;;;;20.87;10.60;;;-2.80;99.90;;;;;;5071450;28;20233;-69
2021/12/08 12:50:32;;;;;;;19.87;12.00;;;-2.70;99.90;;;;;;5065087;28;20209;-67
2021/12/08 12:53:01;;;;;;;18.83;10.97;;;-2.70;99.90;;;;;;5076810;28;20227;-66
2021/12/08 12:55:30;;;;;;;21.83;12.07;;;-2.60;99.90;;;;;;5082101;28;20719;-67
2021/12/08 12:58:16;;;;;;;21.73;11.40;;;-2.50;99.90;;;;;;5082010;28;20761;-67
2021/12/08 13:00:49;;;;;;;22.23;11.73;;;-2.40;99.90;;;;;;5081753;28;20209;-67
2021/12/08 13:03:38;;;;;;;20.07;11.63;;;-2.40;99.90;;;;;;5071970;28;20274;-67
2021/12/08 13:06:07;;;;;;;21.57;12.13;;;-2.30;99.90;;;;;;5085340;28;20211;-68
2021/12/08 13:08:37;;;;;;;21.33;11.93;;;-2.30;99.90;;;;;;5091291;28;20644;-66
2021/12/08 13:11:12;;;;;;;22.57;12.30;;;-2.20;99.90;;;;;;5064703;28;20217;-68
2021/12/08 13:13:49;;;;;;;21.90;11.57;;;-2.20;99.90;;;;;;5085438;28;20661;-66
2021/12/08 13:16:24;;;;;;;21.30;12.73;;;-2.20;99.90;;;;;;5080169;28;20271;-68
2021/12/08 13:18:56;;;;;;;18.93;11.03;;;-2.10;99.90;;;;;;5069032;28;20274;-68
2021/12/08 13:21:40;;;;;;;21.80;12.57;;;-2.10;99.90;;;;;;5074624;28;20256;-68